createdAt,value
2017-10-08T00:02:16.008Z,10.80
2017-10-08T00:04:44.903Z,10.70
2017-10-08T00:07:12.982Z,10.80
2017-10-08T00:09:42.210Z,11.10
2017-10-08T00:12:10.307Z,10.80
2017-10-08T00:17:07.800Z,10.70
2017-10-08T00:19:35.893Z,10.80
2017-10-08T00:22:04.758Z,10.80
2017-10-08T00:24:32.849Z,10.70
2017-10-08T00:27:01.709Z,10.70
2017-10-08T00:29:29.824Z,10.70
2017-10-08T00:34:27.278Z,10.70
2017-10-08T00:36:56.510Z,10.80
2017-10-08T00:39:24.586Z,10.80
2017-10-08T00:41:52.717Z,10.70
2017-10-08T00:44:20.806Z,10.80
2017-10-08T00:46:48.896Z,10.80
2017-10-08T00:49:17.765Z,10.80
2017-10-08T00:51:46.615Z,10.80
2017-10-08T00:54:15.462Z,10.80
2017-10-08T00:56:43.570Z,10.70
2017-10-08T00:59:11.666Z,10.80
2017-10-08T01:01:39.770Z,10.70
2017-10-08T01:04:07.916Z,10.80
2017-10-08T01:06:36.005Z,10.70
2017-10-08T01:09:04.875Z,10.80
2017-10-08T01:11:33.727Z,10.80
2017-10-08T01:16:31.217Z,10.80
2017-10-08T01:18:59.310Z,10.80
2017-10-08T01:21:27.407Z,10.80
2017-10-08T01:26:25.100Z,10.70
2017-10-08T01:28:53.751Z,10.80
2017-10-08T01:31:21.843Z,10.80
2017-10-08T01:33:50.409Z,10.70
2017-10-08T01:36:18.491Z,10.70
2017-10-08T01:38:46.579Z,10.70
2017-10-08T01:41:15.454Z,10.70
2017-10-08T01:43:43.535Z,10.80
2017-10-08T01:46:13.124Z,10.80
2017-10-08T01:48:41.234Z,10.80
2017-10-08T01:51:10.235Z,10.70
2017-10-08T01:53:39.785Z,10.70
2017-10-08T01:56:07.872Z,10.70
2017-10-08T01:58:35.991Z,10.70
2017-10-08T02:01:04.078Z,10.70
2017-10-08T02:03:32.938Z,10.70
2017-10-08T02:06:02.180Z,10.70
2017-10-08T02:08:30.270Z,10.70
2017-10-08T02:10:58.392Z,10.70
2017-10-08T02:13:27.236Z,10.70
2017-10-08T02:15:55.337Z,10.70
2017-10-08T02:18:23.906Z,10.70
2017-10-08T02:20:51.996Z,10.70
2017-10-08T02:23:20.484Z,10.70
2017-10-08T02:25:48.580Z,10.70
2017-10-08T02:28:18.219Z,10.70
2017-10-08T02:30:47.479Z,10.70
2017-10-08T02:33:15.957Z,10.70
2017-10-08T02:35:44.038Z,10.60
2017-10-08T02:40:41.586Z,10.60
2017-10-08T02:43:09.684Z,10.60
2017-10-08T02:45:37.795Z,10.60
2017-10-08T02:48:05.867Z,10.60
2017-10-08T02:50:34.725Z,10.60
2017-10-08T02:53:02.833Z,10.50
2017-10-08T02:55:30.919Z,10.50
2017-10-08T02:57:59.021Z,10.60
2017-10-08T03:00:27.492Z,10.60
2017-10-08T03:02:56.353Z,10.60
2017-10-08T03:05:24.443Z,10.70
2017-10-08T03:07:52.561Z,10.70
2017-10-08T03:10:20.637Z,10.70
2017-10-08T03:12:48.739Z,10.70
2017-10-08T03:15:16.814Z,10.70
2017-10-08T03:17:44.890Z,10.70
2017-10-08T03:20:12.974Z,10.80
2017-10-08T03:22:41.054Z,10.70
2017-10-08T03:25:09.915Z,10.70
2017-10-08T03:27:37.988Z,10.80
2017-10-08T03:30:06.106Z,10.80
2017-10-08T03:32:34.214Z,10.80
2017-10-08T03:35:02.306Z,10.80
2017-10-08T03:37:30.415Z,10.80
2017-10-08T03:42:28.988Z,10.80
2017-10-08T03:47:26.465Z,10.80
2017-10-08T03:49:54.531Z,10.90
2017-10-08T03:52:23.395Z,10.90
2017-10-08T03:54:51.902Z,10.90
2017-10-08T03:57:19.983Z,11.00
2017-10-08T03:59:48.073Z,11.00
2017-10-08T04:02:16.175Z,11.00
2017-10-08T04:07:13.601Z,11.00
2017-10-08T04:09:41.710Z,11.00
2017-10-08T04:12:10.178Z,11.00
2017-10-08T04:14:39.051Z,11.10
2017-10-08T04:17:07.531Z,11.00
2017-10-08T04:19:35.639Z,11.00
2017-10-08T04:22:05.223Z,11.00
2017-10-08T04:24:33.311Z,11.10
2017-10-08T04:27:02.220Z,11.00
2017-10-08T04:29:30.299Z,11.00
2017-10-08T04:31:58.383Z,11.10
2017-10-08T04:34:26.480Z,11.10
2017-10-08T04:36:54.566Z,11.10
2017-10-08T04:39:22.671Z,11.20
2017-10-08T04:41:50.748Z,11.20
2017-10-08T04:44:18.844Z,11.20
2017-10-08T04:46:47.109Z,11.30
2017-10-08T04:49:15.210Z,11.30
2017-10-08T04:51:43.718Z,11.20
2017-10-08T04:54:11.796Z,11.30
2017-10-08T04:56:40.637Z,11.20
2017-10-08T04:59:08.745Z,11.20
2017-10-08T05:01:36.830Z,11.20
2017-10-08T05:04:06.078Z,11.30
2017-10-08T05:06:34.159Z,11.30
2017-10-08T05:09:02.242Z,11.20
2017-10-08T05:11:30.363Z,11.10
2017-10-08T05:13:59.204Z,11.10
2017-10-08T05:16:27.287Z,11.10
2017-10-08T05:18:55.400Z,11.20
2017-10-08T05:23:59.574Z,11.20
2017-10-08T05:26:27.653Z,11.10
2017-10-08T05:28:55.737Z,11.10
2017-10-08T05:31:23.837Z,11.10
2017-10-08T05:33:51.920Z,11.20
2017-10-08T05:36:20.888Z,11.30
2017-10-08T05:38:50.494Z,11.20
2017-10-08T05:41:18.603Z,11.30
2017-10-08T05:43:46.685Z,11.20
2017-10-08T05:46:14.780Z,11.20
2017-10-08T05:48:42.860Z,11.20
2017-10-08T05:51:10.953Z,11.10
2017-10-08T05:53:39.060Z,11.20
2017-10-08T05:56:07.999Z,11.20
2017-10-08T06:01:05.960Z,11.20
2017-10-08T06:03:34.071Z,11.20
2017-10-08T06:06:02.247Z,11.30
2017-10-08T06:08:30.352Z,11.20
2017-10-08T06:10:58.852Z,11.30
2017-10-08T06:13:27.716Z,11.30
2017-10-08T06:15:55.813Z,11.30
2017-10-08T06:20:58.487Z,11.30
2017-10-08T06:23:27.334Z,11.40
2017-10-08T06:25:56.212Z,11.30
2017-10-08T06:28:25.060Z,11.40
2017-10-08T06:30:53.906Z,11.50
2017-10-08T06:33:22.065Z,11.50
2017-10-08T06:35:50.156Z,11.60
2017-10-08T06:38:19.759Z,11.60
2017-10-08T06:40:47.866Z,11.60
2017-10-08T06:45:45.782Z,11.60
2017-10-08T06:48:14.302Z,11.70
2017-10-08T06:50:42.776Z,11.80
2017-10-08T06:53:10.821Z,11.80
2017-10-08T06:55:38.916Z,11.90
2017-10-08T06:58:07.005Z,12.00
2017-10-08T07:00:35.119Z,12.00
2017-10-08T07:03:03.209Z,12.00
2017-10-08T07:05:31.324Z,12.20
2017-10-08T07:07:59.405Z,12.20
2017-10-08T07:10:27.481Z,12.30
2017-10-08T07:12:55.594Z,12.40
2017-10-08T07:15:23.683Z,12.40
2017-10-08T07:17:51.765Z,12.40
2017-10-08T07:20:19.859Z,12.40
2017-10-08T07:22:47.942Z,12.40
2017-10-08T07:25:16.081Z,12.40
2017-10-08T07:27:44.160Z,12.40
2017-10-08T07:30:12.282Z,12.50
2017-10-08T07:32:41.144Z,12.50
2017-10-08T07:37:38.587Z,12.50
2017-10-08T07:40:07.088Z,12.50
2017-10-08T07:42:35.178Z,12.70
2017-10-08T07:45:04.760Z,13.10
2017-10-08T07:47:32.890Z,13.30
2017-10-08T07:50:01.744Z,13.70
2017-10-08T07:52:29.827Z,13.70
2017-10-08T07:54:58.713Z,14.00
2017-10-08T07:57:26.959Z,14.30
2017-10-08T07:59:56.890Z,14.50
2017-10-08T08:04:54.736Z,15.20
2017-10-08T08:09:53.048Z,15.20
2017-10-08T08:14:51.607Z,15.10
2017-10-08T08:17:19.784Z,15.20
2017-10-08T08:19:47.850Z,15.10
2017-10-08T08:22:16.862Z,14.80
2017-10-08T08:29:44.187Z,14.30
2017-10-08T08:34:41.656Z,14.20
2017-10-08T08:37:09.752Z,14.20
2017-10-08T08:42:07.593Z,14.80
2017-10-08T08:44:35.783Z,15.20
2017-10-08T08:47:04.629Z,15.60
2017-10-08T08:49:34.247Z,16.20
2017-10-08T08:52:03.140Z,16.40
2017-10-08T08:54:31.221Z,16.40
2017-10-08T08:57:00.127Z,16.60
2017-10-08T08:59:28.220Z,16.80
2017-10-08T09:06:55.127Z,16.40
2017-10-08T09:09:25.222Z,16.70
2017-10-08T09:11:53.322Z,17.40
2017-10-08T09:14:21.407Z,17.30
2017-10-08T09:16:49.517Z,17.40
2017-10-08T09:19:17.597Z,16.70
2017-10-08T09:21:45.686Z,16.80
2017-10-08T09:24:15.686Z,16.80
2017-10-08T09:26:43.785Z,17.00
2017-10-08T09:29:11.876Z,17.00
2017-10-08T09:31:40.011Z,16.60
2017-10-08T09:34:08.138Z,16.10
2017-10-08T09:36:36.192Z,15.90
2017-10-08T09:39:04.307Z,15.80
2017-10-08T09:41:32.383Z,15.90
2017-10-08T09:44:00.690Z,16.20
2017-10-08T09:48:58.179Z,16.20
2017-10-08T09:51:26.252Z,16.80
2017-10-08T09:53:54.344Z,16.70
2017-10-08T09:56:22.453Z,16.30
2017-10-08T09:58:50.519Z,15.80
2017-10-08T10:01:18.609Z,15.60
2017-10-08T10:08:48.369Z,15.80
2017-10-08T10:11:16.882Z,15.90
2017-10-08T10:13:45.194Z,15.90
2017-10-08T10:16:13.536Z,15.70
2017-10-08T10:18:41.614Z,15.60
2017-10-08T10:21:09.722Z,15.50
2017-10-08T10:23:37.836Z,15.50
2017-10-08T10:26:05.949Z,15.40
2017-10-08T10:28:34.803Z,15.00
2017-10-08T10:31:03.656Z,15.10
2017-10-08T10:33:31.748Z,15.20
2017-10-08T10:35:59.847Z,15.30
2017-10-08T10:38:27.919Z,15.30
2017-10-08T10:40:56.020Z,15.30
2017-10-08T10:43:24.103Z,15.50
2017-10-08T10:48:21.538Z,16.20
2017-10-08T10:50:49.646Z,16.50
2017-10-08T10:53:18.710Z,16.50
2017-10-08T10:55:46.783Z,16.10
2017-10-08T10:58:15.698Z,15.80
2017-10-08T11:00:43.795Z,15.50
2017-10-08T11:03:11.890Z,15.20
2017-10-08T11:05:39.999Z,15.10
2017-10-08T11:08:09.587Z,15.10
2017-10-08T11:10:37.671Z,15.00
2017-10-08T11:15:36.652Z,16.10
2017-10-08T11:18:04.759Z,16.50
2017-10-08T11:20:33.606Z,16.80
2017-10-08T11:23:02.455Z,17.30
2017-10-08T11:25:30.666Z,17.20
2017-10-08T11:27:58.756Z,18.30
2017-10-08T11:30:26.856Z,19.80
2017-10-08T11:32:54.933Z,21.50
2017-10-08T11:35:23.027Z,22.90
2017-10-08T11:37:51.111Z,23.00
2017-10-08T11:40:19.224Z,22.00
2017-10-08T11:42:47.718Z,21.80
2017-10-08T11:45:15.826Z,21.20
2017-10-08T11:47:45.404Z,20.90
2017-10-08T11:50:13.497Z,20.30
2017-10-08T11:52:42.020Z,19.80
2017-10-08T11:55:10.132Z,19.20
2017-10-08T11:57:38.218Z,18.40
2017-10-08T12:00:06.321Z,18.20
2017-10-08T12:02:35.214Z,18.00
2017-10-08T12:05:04.053Z,17.80
2017-10-08T12:07:32.904Z,17.50
2017-10-08T12:10:01.023Z,17.10
2017-10-08T12:12:30.620Z,17.00
2017-10-08T12:14:59.101Z,17.00
2017-10-08T12:19:57.352Z,22.00
2017-10-08T12:22:25.430Z,23.90
2017-10-08T12:24:53.519Z,24.70
2017-10-08T12:27:21.640Z,25.90
2017-10-08T12:29:49.743Z,25.50
2017-10-08T12:32:17.815Z,25.60
2017-10-08T12:34:46.674Z,26.20
2017-10-08T12:37:15.158Z,26.40
2017-10-08T12:39:44.403Z,25.00
2017-10-08T12:42:15.711Z,24.80
2017-10-08T12:44:45.899Z,24.30
2017-10-08T12:47:13.978Z,22.60
2017-10-08T12:49:42.053Z,21.50
2017-10-08T12:52:10.161Z,20.60
2017-10-08T12:54:38.280Z,19.50
2017-10-08T12:57:07.126Z,18.90
2017-10-08T13:02:04.963Z,18.20
2017-10-08T13:04:33.042Z,17.80
2017-10-08T13:07:01.205Z,17.90
2017-10-08T13:09:29.288Z,18.00
2017-10-08T13:11:57.389Z,18.20
2017-10-08T13:14:26.982Z,18.00
2017-10-08T13:16:55.063Z,17.80
2017-10-08T13:19:23.172Z,17.60
2017-10-08T13:21:51.273Z,17.50
2017-10-08T13:24:19.388Z,17.30
2017-10-08T13:26:47.478Z,17.20
2017-10-08T13:29:16.547Z,17.10
2017-10-08T13:31:45.436Z,16.80
2017-10-08T13:34:14.279Z,16.50
2017-10-08T13:36:42.364Z,16.20
2017-10-08T13:39:10.457Z,16.10
2017-10-08T13:41:38.934Z,15.90
2017-10-08T13:44:07.428Z,15.70
2017-10-08T13:46:37.935Z,15.60
2017-10-08T13:49:06.033Z,15.30
2017-10-08T13:51:34.102Z,15.10
2017-10-08T13:54:02.987Z,15.10
2017-10-08T13:56:31.061Z,15.20
2017-10-08T13:58:59.154Z,15.60
2017-10-08T14:01:28.010Z,15.90
2017-10-08T14:03:56.111Z,16.10
2017-10-08T14:06:24.195Z,17.10
2017-10-08T14:08:52.698Z,18.20
2017-10-08T14:11:20.782Z,18.50
2017-10-08T14:13:49.638Z,18.10
2017-10-08T14:16:17.724Z,17.90
2017-10-08T14:18:45.815Z,17.50
2017-10-08T14:21:13.949Z,17.20
2017-10-08T14:26:18.069Z,16.80
2017-10-08T14:28:46.152Z,16.90
2017-10-08T14:31:15.000Z,17.20
2017-10-08T14:33:43.104Z,17.70
2017-10-08T14:36:12.942Z,18.20
2017-10-08T14:38:42.159Z,17.90
2017-10-08T14:41:10.288Z,17.60
2017-10-08T14:43:38.371Z,17.30
2017-10-08T14:46:07.218Z,17.00
2017-10-08T14:48:36.093Z,16.90
2017-10-08T14:51:04.175Z,16.70
2017-10-08T14:53:32.287Z,16.60
2017-10-08T14:56:01.140Z,16.60
2017-10-08T14:58:29.239Z,16.50
2017-10-08T15:00:57.342Z,16.30
2017-10-08T15:03:25.438Z,16.10
2017-10-08T15:05:54.677Z,15.90
2017-10-08T15:08:22.786Z,15.80
2017-10-08T15:10:52.019Z,15.70
2017-10-08T15:15:49.459Z,15.70
2017-10-08T15:18:17.561Z,15.70
2017-10-08T15:20:45.653Z,15.60
2017-10-08T15:23:14.914Z,15.60
2017-10-08T15:25:43.014Z,15.60
2017-10-08T15:28:11.106Z,15.50
2017-10-08T15:30:39.211Z,15.50
2017-10-08T15:33:07.298Z,15.60
2017-10-08T15:35:35.393Z,15.60
2017-10-08T15:38:03.483Z,15.50
2017-10-08T15:40:32.347Z,15.50
2017-10-08T15:43:00.450Z,15.50
2017-10-08T15:45:28.529Z,15.40
2017-10-08T15:47:56.607Z,15.30
2017-10-08T15:50:24.702Z,15.20
2017-10-08T15:52:54.293Z,15.20
2017-10-08T15:55:22.414Z,15.00
2017-10-08T15:57:50.491Z,14.90
2017-10-08T16:00:18.577Z,14.90
2017-10-08T16:02:46.698Z,14.90
2017-10-08T16:07:44.142Z,14.80
2017-10-08T16:10:12.324Z,14.70
2017-10-08T16:12:40.441Z,14.60
2017-10-08T16:15:08.526Z,14.60
2017-10-08T16:17:37.020Z,14.50
2017-10-08T16:20:05.119Z,14.50
2017-10-08T16:22:33.958Z,14.40
2017-10-08T16:25:02.060Z,14.40
2017-10-08T16:27:30.244Z,14.40
2017-10-08T16:29:58.726Z,14.30
2017-10-08T16:32:27.226Z,14.30
2017-10-08T16:34:57.246Z,14.30
2017-10-08T16:37:25.330Z,14.30
2017-10-08T16:39:54.538Z,14.30
2017-10-08T16:42:23.410Z,14.30
2017-10-08T16:44:51.489Z,14.10
2017-10-08T16:47:20.340Z,14.10
2017-10-08T16:49:48.445Z,14.10
2017-10-08T16:52:16.528Z,14.10
2017-10-08T16:54:45.032Z,14.00
2017-10-08T16:57:13.118Z,14.00
2017-10-08T16:59:41.223Z,13.90
2017-10-08T17:02:09.299Z,13.90
2017-10-08T17:04:38.533Z,13.80
2017-10-08T17:07:06.611Z,13.70
2017-10-08T17:09:35.492Z,13.60
2017-10-08T17:12:03.603Z,13.50
2017-10-08T17:14:32.831Z,13.50
2017-10-08T17:17:00.911Z,13.40
2017-10-08T17:19:29.042Z,13.30
2017-10-08T17:21:57.138Z,13.30
2017-10-08T17:24:25.282Z,13.30
2017-10-08T17:26:53.394Z,13.30
2017-10-08T17:29:21.509Z,13.30
2017-10-08T17:31:52.044Z,13.20
2017-10-08T17:34:20.998Z,13.20
2017-10-08T17:36:49.904Z,13.10
2017-10-08T17:39:18.028Z,13.10
2017-10-08T17:41:46.128Z,13.00
2017-10-08T17:44:14.218Z,13.00
2017-10-08T17:46:42.322Z,13.00
2017-10-08T17:49:10.416Z,13.00
2017-10-08T17:51:39.662Z,13.20
2017-10-08T17:54:07.762Z,13.50
2017-10-08T17:56:37.577Z,13.60
2017-10-08T17:59:05.683Z,13.50
2017-10-08T18:01:34.566Z,13.40
2017-10-08T18:04:02.648Z,13.20
2017-10-08T18:06:30.749Z,13.20
2017-10-08T18:08:59.600Z,13.10
2017-10-08T18:11:29.206Z,13.00
2017-10-08T18:13:57.288Z,13.00
2017-10-08T18:16:26.367Z,12.90
2017-10-08T18:18:55.228Z,12.90
2017-10-08T18:21:24.815Z,12.80
2017-10-08T18:23:53.164Z,12.70
2017-10-08T18:26:22.948Z,12.70
2017-10-08T18:28:51.429Z,12.70
2017-10-08T18:31:19.922Z,12.60
2017-10-08T18:33:49.512Z,12.60
2017-10-08T18:36:18.620Z,12.50
2017-10-08T18:38:46.721Z,12.50
2017-10-08T18:41:14.815Z,12.40
2017-10-08T18:43:44.456Z,12.40
2017-10-08T18:46:13.290Z,12.50
2017-10-08T18:48:41.379Z,12.60
2017-10-08T18:51:09.484Z,12.50
2017-10-08T18:53:39.061Z,12.50
2017-10-08T18:56:07.170Z,12.50
2017-10-08T18:58:35.254Z,12.50
2017-10-08T19:01:03.348Z,12.50
2017-10-08T19:03:33.184Z,12.50
2017-10-08T19:06:01.262Z,12.50
2017-10-08T19:08:30.181Z,12.50
2017-10-08T19:10:59.856Z,12.60
2017-10-08T19:13:27.917Z,12.60
2017-10-08T19:15:55.999Z,12.60
2017-10-08T19:18:24.105Z,12.50
2017-10-08T19:23:21.565Z,12.50
2017-10-08T19:25:49.634Z,12.50
2017-10-08T19:28:17.734Z,12.40
2017-10-08T19:30:46.591Z,12.40
2017-10-08T19:33:14.711Z,12.40
2017-10-08T19:35:42.795Z,12.40
2017-10-08T19:38:10.880Z,12.30
2017-10-08T19:40:38.989Z,12.40
2017-10-08T19:43:07.095Z,12.40
2017-10-08T19:45:35.220Z,12.40
2017-10-08T19:48:03.332Z,12.30
2017-10-08T19:53:00.783Z,12.30
2017-10-08T19:55:28.882Z,12.20
2017-10-08T19:57:57.738Z,12.30
2017-10-08T20:00:25.818Z,12.20
2017-10-08T20:02:53.926Z,12.20
2017-10-08T20:05:22.006Z,12.20
2017-10-08T20:07:50.092Z,12.20
2017-10-08T20:10:18.182Z,12.20
2017-10-08T20:12:46.275Z,12.10
2017-10-08T20:15:14.893Z,12.20
2017-10-08T20:17:42.968Z,12.10
2017-10-08T20:20:11.060Z,12.10
2017-10-08T20:22:39.156Z,12.10
2017-10-08T20:25:07.249Z,12.10
2017-10-08T20:27:35.346Z,12.10
2017-10-08T20:30:04.979Z,12.10
2017-10-08T20:35:04.368Z,12.10
2017-10-08T20:37:33.239Z,12.20
2017-10-08T20:40:01.320Z,12.20
2017-10-08T20:42:29.422Z,12.10
2017-10-08T20:44:57.504Z,12.10
2017-10-08T20:47:25.602Z,12.10
2017-10-08T20:49:53.693Z,12.10
2017-10-08T20:52:21.790Z,12.10
2017-10-08T20:54:49.899Z,12.10
2017-10-08T20:57:17.973Z,12.20
2017-10-08T20:59:46.082Z,12.20
2017-10-08T21:04:43.922Z,12.20
2017-10-08T21:07:12.022Z,12.20
2017-10-08T21:09:40.122Z,12.20
2017-10-08T21:12:08.227Z,12.20
2017-10-08T21:14:37.075Z,12.10
2017-10-08T21:17:05.157Z,12.10
2017-10-08T21:19:34.612Z,12.10
2017-10-08T21:22:04.193Z,12.00
2017-10-08T21:24:32.314Z,12.00
2017-10-08T21:27:00.798Z,11.90
2017-10-08T21:29:29.665Z,11.90
2017-10-08T21:31:58.178Z,11.90
2017-10-08T21:34:26.645Z,11.90
2017-10-08T21:36:54.734Z,11.80
2017-10-08T21:39:23.610Z,11.80
2017-10-08T21:41:51.699Z,11.80
2017-10-08T21:44:19.782Z,11.70
2017-10-08T21:46:48.646Z,11.70
2017-10-08T21:49:17.496Z,11.70
2017-10-08T21:51:45.613Z,11.70
2017-10-08T21:54:13.698Z,11.70
2017-10-08T21:56:41.789Z,11.60
2017-10-08T21:59:10.632Z,11.70
2017-10-08T22:01:38.731Z,11.70
2017-10-08T22:04:06.807Z,11.60
2017-10-08T22:06:34.885Z,11.70
2017-10-08T22:09:02.998Z,11.70
2017-10-08T22:11:31.097Z,11.60
2017-10-08T22:14:00.316Z,11.60
2017-10-08T22:16:28.437Z,11.50
2017-10-08T22:21:25.856Z,11.50
2017-10-08T22:23:53.951Z,11.50
2017-10-08T22:26:25.416Z,11.40
2017-10-08T22:28:54.273Z,11.30
2017-10-08T22:31:22.402Z,11.30
2017-10-08T22:33:51.247Z,11.30
2017-10-08T22:36:19.335Z,11.30
2017-10-08T22:38:47.433Z,11.30
2017-10-08T22:41:15.518Z,11.20
2017-10-08T22:43:44.015Z,11.20
2017-10-08T22:46:12.086Z,11.20
2017-10-08T22:48:40.179Z,11.20
2017-10-08T22:51:08.693Z,11.20
2017-10-08T22:53:36.767Z,11.10
2017-10-08T22:56:05.606Z,11.10
2017-10-08T22:58:33.710Z,11.10
2017-10-08T23:01:01.797Z,11.00
2017-10-08T23:03:29.889Z,11.00
2017-10-08T23:05:58.736Z,11.00
2017-10-08T23:08:26.832Z,11.00
2017-10-08T23:10:54.926Z,11.00
2017-10-08T23:13:23.020Z,11.00
2017-10-08T23:15:51.120Z,11.00
2017-10-08T23:18:19.205Z,11.00
2017-10-08T23:20:47.678Z,10.90
2017-10-08T23:23:15.780Z,10.90
2017-10-08T23:28:13.217Z,10.80
2017-10-08T23:30:41.315Z,10.80
2017-10-08T23:35:39.560Z,10.70
2017-10-08T23:38:07.643Z,10.60
2017-10-08T23:40:35.751Z,10.60
2017-10-08T23:43:03.842Z,10.50
2017-10-08T23:45:32.687Z,10.50
2017-10-08T23:50:30.131Z,10.40
2017-10-08T23:52:58.207Z,10.30
2017-10-08T23:55:26.309Z,10.30
2017-10-08T23:57:54.392Z,10.30
